Time;durP1;ratioP1;P1;durP2;ratioP2;P2;SDS_P1;SDS_P2;PMS_P1;PMS_P2;Temp;Humidity;BMP_temperature;BMP_pressure;BME280_temperature;BME280_humidity;BME280_pressure;Samples;Min_cycle;Max_cycle;Signal;HPM_P1;HPM_P2
2021/12/20 00:01:11;;;;;;;4.72;2.55;;;;;;;6.03;78.10;101536.09;5091108;28;20028;-54
2021/12/20 00:03:37;;;;;;;6.25;2.97;;;;;;;6.02;77.89;101539.53;5092495;28;20027;-55
2021/12/20 00:06:02;;;;;;;4.13;2.67;;;;;;;6.03;77.90;101543.94;5090504;28;20617;-55
2021/12/20 00:08:28;;;;;;;8.85;4.53;;;;;;;6.01;77.94;101552.59;5092929;28;20024;-54
2021/12/20 00:10:54;;;;;;;3.28;2.35;;;;;;;6.05;78.12;101550.94;5091729;28;20375;-55
2021/12/20 00:13:19;;;;;;;5.82;2.83;;;;;;;6.03;77.24;101557.03;5091385;28;20024;-54
2021/12/20 00:15:45;;;;;;;4.15;2.90;;;;;;;6.03;77.77;101556.13;5091754;28;20031;-55
2021/12/20 00:18:10;;;;;;;4.53;2.92;;;;;;;6.00;77.55;101542.97;5092763;28;20399;-55
2021/12/20 00:20:36;;;;;;;4.63;2.72;;;;;;;6.01;77.88;101548.22;5092204;28;20646;-53
2021/12/20 00:23:01;;;;;;;4.93;2.67;;;;;;;6.02;77.36;101550.00;5092443;28;20483;-53
2021/12/20 00:25:26;;;;;;;2.85;2.33;;;;;;;6.02;77.53;101560.50;5092937;28;20035;-53
2021/12/20 00:27:51;;;;;;;5.57;2.85;;;;;;;6.02;77.95;101562.22;5092460;28;20020;-54
2021/12/20 00:30:17;;;;;;;5.32;2.17;;;;;;;6.01;77.22;101569.16;5093913;28;20020;-54
2021/12/20 00:32:42;;;;;;;4.80;2.05;;;;;;;6.00;77.71;101567.41;5090953;28;20525;-54
2021/12/20 00:35:08;;;;;;;4.53;2.40;;;;;;;6.02;77.36;101570.97;5092409;28;20020;-54
2021/12/20 00:40:23;;;;;;;4.25;2.60;;;;;;;6.00;78.15;101577.88;5091316;28;20039;-54
2021/12/20 00:42:55;;;;;;;8.38;2.72;;;;;;;6.00;77.32;101579.63;5091906;28;20028;-54
2021/12/20 00:45:25;;;;;;;3.47;2.03;;;;;;;5.99;77.33;101581.38;5091654;28;20024;-54
2021/12/20 00:47:51;;;;;;;4.35;2.70;;;;;;;5.98;77.96;101579.59;5091578;28;20059;-54
2021/12/20 00:50:17;;;;;;;5.43;2.20;;;;;;;5.99;77.70;101589.22;5093454;28;20398;-54
2021/12/20 00:52:43;;;;;;;4.20;2.47;;;;;;;6.00;77.34;101587.50;5091575;28;20050;-55
2021/12/20 00:55:15;;;;;;;5.30;2.70;;;;;;;5.99;77.41;101585.69;5092545;28;20479;-55
2021/12/20 00:57:41;;;;;;;3.60;2.05;;;;;;;5.98;77.09;101579.59;5091690;28;20574;-53
2021/12/20 01:00:08;;;;;;;6.75;3.40;;;;;;;5.99;77.22;101585.69;5092117;28;20119;-55
2021/12/20 01:02:33;;;;;;;6.32;2.50;;;;;;;5.98;77.50;101592.69;5091537;28;20020;-55
2021/12/20 01:04:58;;;;;;;4.32;2.10;;;;;;;5.90;77.47;101588.97;5091957;28;20024;-54
2021/12/20 01:07:24;;;;;;;4.45;2.00;;;;;;;5.97;77.45;101597.88;5091640;28;20024;-54
2021/12/20 01:09:49;;;;;;;6.55;2.47;;;;;;;5.96;78.16;101586.53;5091532;28;20024;-55
2021/12/20 01:12:20;;;;;;;3.78;2.13;;;;;;;5.97;77.39;101585.66;5088631;28;20028;-54
2021/12/20 01:14:46;;;;;;;6.30;2.20;;;;;;;5.95;77.42;101579.53;5091684;28;20012;-55
2021/12/20 01:17:12;;;;;;;4.78;2.08;;;;;;;5.95;77.32;101584.75;5091480;28;20446;-55
2021/12/20 01:19:38;;;;;;;3.45;2.10;;;;;;;5.95;77.16;101589.09;5090655;28;20067;-55
2021/12/20 01:22:04;;;;;;;3.97;2.28;;;;;;;5.94;77.16;101590.84;5072846;28;20027;-55
2021/12/20 01:24:30;;;;;;;6.05;2.47;;;;;;;5.93;77.30;101590.81;5084489;28;20490;-55
2021/12/20 01:26:56;;;;;;;5.15;2.25;;;;;;;5.94;76.91;101596.09;5091537;28;20032;-54
2021/12/20 01:29:22;;;;;;;4.25;2.03;;;;;;;5.94;76.90;101588.22;5090716;28;20488;-55
2021/12/20 01:31:49;;;;;;;4.50;2.53;;;;;;;5.94;77.32;101593.47;5090916;28;20159;-54
2021/12/20 01:34:14;;;;;;;3.90;1.85;;;;;;;5.88;77.19;101602.06;5091444;28;20091;-54
2021/12/20 01:36:40;;;;;;;3.22;1.92;;;;;;;5.93;77.55;101602.16;5090992;28;20174;-53
2021/12/20 01:39:06;;;;;;;6.10;2.20;;;;;;;5.91;77.21;101604.72;5089656;28;20035;-54
2021/12/20 01:41:31;;;;;;;4.82;2.13;;;;;;;5.93;77.01;101610.00;5087993;28;20012;-54
2021/12/20 01:43:56;;;;;;;2.85;2.10;;;;;;;5.95;77.38;101613.56;5090917;28;20049;-53
2021/12/20 01:46:23;;;;;;;6.57;2.00;;;;;;;5.89;77.01;101609.06;5091600;28;20073;-54
2021/12/20 01:48:48;;;;;;;4.30;2.50;;;;;;;5.93;77.36;101612.63;5090386;28;20069;-54
2021/12/20 01:54:05;;;;;;;4.63;2.00;;;;;;;5.93;77.16;101622.22;5064242;28;20107;-54
2021/12/20 01:56:34;;;;;;;2.65;2.20;;;;;;;5.88;76.91;101624.72;5091364;28;20107;-54
2021/12/20 01:59:04;;;;;;;3.47;2.00;;;;;;;5.92;77.32;101616.09;5090185;28;20030;-54
2021/12/20 02:01:30;;;;;;;2.95;1.88;;;;;;;5.88;76.93;101619.47;5090725;28;20104;-55
2021/12/20 02:07:50;;;;;;;4.28;1.83;;;;;;;5.87;76.79;101628.19;5088422;28;20031;-54
2021/12/20 02:10:05;;;;;;;4.18;2.17;;;;;;;5.86;76.83;101621.16;5074709;28;20095;-53
2021/12/20 02:12:31;;;;;;;3.92;2.10;;;;;;;5.85;76.64;101622.03;5089516;28;20441;-53
2021/12/20 02:14:56;;;;;;;4.80;2.03;;;;;;;5.87;76.84;101623.81;5090683;28;20024;-54
2021/12/20 02:17:21;;;;;;;4.03;2.08;;;;;;;5.87;76.49;101607.25;5090955;28;20024;-55
2021/12/20 02:19:47;;;;;;;3.58;2.17;;;;;;;5.86;76.84;101606.34;5090711;28;20101;-55
2021/12/20 02:22:12;;;;;;;4.18;1.77;;;;;;;5.88;76.79;101615.16;5089731;28;20106;-54
2021/12/20 02:24:37;;;;;;;3.50;1.88;;;;;;;5.87;76.37;101617.72;5093227;28;20031;-55
2021/12/20 02:27:03;;;;;;;4.47;2.08;;;;;;;5.87;76.73;101609.88;5090633;28;20023;-55
2021/12/20 02:29:43;;;;;;;3.65;2.13;;;;;;;5.86;76.74;101610.69;5089632;28;20024;-54
2021/12/20 02:37:36;;;;;;;4.03;2.38;;;;;;;5.84;76.74;101612.41;5084784;28;20522;-54
2021/12/20 02:40:03;;;;;;;2.42;1.60;;;;;;;5.85;76.15;101614.16;5090852;28;20016;-54
2021/12/20 02:42:36;;;;;;;7.65;2.25;;;;;;;5.81;76.22;101622.78;5071942;28;20099;-54
2021/12/20 02:45:14;;;;;;;4.63;1.48;;;;;;;5.82;76.40;101625.44;5087937;28;20050;-54
2021/12/20 02:47:45;;;;;;;6.35;3.03;;;;;;;5.82;76.79;101617.59;5086918;28;20448;-54
2021/12/20 02:50:11;;;;;;;3.03;2.10;;;;;;;5.82;76.66;101614.06;5085397;28;20023;-52
2021/12/20 02:52:38;;;;;;;5.03;2.15;;;;;;;5.81;76.77;101607.06;5070790;28;20036;-53
2021/12/20 02:55:05;;;;;;;4.78;2.65;;;;;;;5.78;76.12;101608.75;5070654;28;20020;-54
2021/12/20 02:57:34;;;;;;;6.10;2.38;;;;;;;5.74;76.55;101596.44;5069193;28;20110;-55
2021/12/20 02:59:59;;;;;;;4.70;2.13;;;;;;;5.80;76.44;101605.31;5087483;28;20024;-54
2021/12/20 03:02:25;;;;;;;5.43;1.80;;;;;;;5.78;76.17;101598.28;5088548;28;20035;-55
2021/12/20 03:04:50;;;;;;;5.15;1.90;;;;;;;5.81;76.34;101607.06;5088985;28;20021;-54
2021/12/20 03:07:22;;;;;;;3.97;2.00;;;;;;;5.78;76.45;101598.28;5089434;28;20031;-54
2021/12/20 03:09:54;;;;;;;3.97;2.00;;;;;;;5.75;76.48;101606.09;5072992;28;20020;-55
2021/12/20 03:12:19;;;;;;;5.57;1.70;;;;;;;5.75;76.21;101613.94;5086812;28;20537;-54
2021/12/20 03:14:47;;;;;;;2.95;1.83;;;;;;;5.78;76.37;101608.75;5089991;28;20024;-53
2021/12/20 03:17:13;;;;;;;4.07;1.80;;;;;;;5.77;75.68;101613.97;5070428;28;20027;-53
2021/12/20 03:19:39;;;;;;;3.63;2.05;;;;;;;5.75;75.92;101616.56;5072043;28;20028;-54
2021/12/20 03:22:05;;;;;;;6.60;2.50;;;;;;;5.76;76.18;101615.69;5087832;28;20460;-55
2021/12/20 03:24:31;;;;;;;4.85;2.58;;;;;;;5.75;76.58;101618.28;5087572;28;20499;-55
2021/12/20 03:26:57;;;;;;;6.05;2.45;;;;;;;5.73;76.36;101630.44;5089687;28;20016;-53
2021/12/20 03:29:22;;;;;;;3.97;2.28;;;;;;;5.76;76.10;101623.56;5088380;28;20115;-55
2021/12/20 03:31:47;;;;;;;5.82;2.30;;;;;;;5.74;76.36;101627.84;5086920;28;20434;-53
2021/12/20 03:34:14;;;;;;;2.42;1.80;;;;;;;5.74;76.44;101627.00;5053226;28;20035;-54
2021/12/20 03:36:40;;;;;;;4.47;2.47;;;;;;;5.72;76.12;101629.56;5089598;28;20028;-55
2021/12/20 03:39:07;;;;;;;2.83;1.83;;;;;;;5.72;76.20;101633.91;5088190;28;20098;-54
2021/12/20 03:41:33;;;;;;;3.38;1.98;;;;;;;5.73;76.55;101631.31;5070545;28;20039;-55
2021/12/20 03:43:58;;;;;;;5.88;2.28;;;;;;;5.70;76.37;101628.63;5087369;28;20016;-53
2021/12/20 03:46:24;;;;;;;5.82;1.88;;;;;;;5.70;76.63;101630.38;5085110;28;20035;-54
2021/12/20 03:48:49;;;;;;;4.75;2.40;;;;;;;5.72;76.37;101631.28;5088130;28;20031;-54
2021/12/20 03:51:14;;;;;;;4.97;2.30;;;;;;;5.70;76.00;101636.47;5093061;28;20027;-54
2021/12/20 03:53:40;;;;;;;4.07;1.88;;;;;;;5.69;76.22;101629.47;5089656;28;20047;-54
2021/12/20 03:56:06;;;;;;;2.95;1.65;;;;;;;5.69;76.62;101624.25;5091784;28;20062;-54
2021/12/20 03:58:32;;;;;;;5.13;2.42;;;;;;;5.70;76.38;101635.59;5092524;28;20084;-55
2021/12/20 04:00:59;;;;;;;4.90;2.17;;;;;;;5.68;75.87;101625.09;5084086;28;20027;-55
2021/12/20 04:03:25;;;;;;;4.43;1.83;;;;;;;5.67;76.06;101628.53;5092022;28;20027;-55
2021/12/20 04:05:52;;;;;;;2.55;1.75;;;;;;;5.69;76.20;101639.03;5075224;28;20036;-54
2021/12/20 04:08:17;;;;;;;3.22;1.90;;;;;;;5.69;75.74;101636.44;5075369;28;20044;-54
2021/12/20 04:10:43;;;;;;;4.55;1.77;;;;;;;5.66;75.60;101626.78;5092828;28;20048;-54
2021/12/20 04:13:09;;;;;;;2.72;1.90;;;;;;;5.67;75.88;101633.78;5089880;28;20019;-54
2021/12/20 04:15:35;;;;;;;2.80;1.95;;;;;;;5.68;75.76;101626.81;5091993;28;20032;-55
2021/12/20 04:18:01;;;;;;;3.35;2.22;;;;;;;5.67;75.89;101631.16;5091034;28;20039;-55
2021/12/20 04:20:26;;;;;;;3.78;2.05;;;;;;;5.68;76.01;101632.03;5093237;28;20024;-54
2021/12/20 04:22:51;;;;;;;6.65;2.10;;;;;;;5.68;75.77;101639.91;5091848;28;20036;-54
2021/12/20 04:25:17;;;;;;;2.92;1.88;;;;;;;5.66;75.92;101642.47;5090899;28;20024;-54
2021/12/20 04:27:42;;;;;;;3.63;1.90;;;;;;;5.64;75.66;101650.28;5073995;28;20028;-55
2021/12/20 04:30:11;;;;;;;5.65;2.80;;;;;;;5.63;75.95;101652.84;5093341;28;20024;-53
2021/12/20 04:32:46;;;;;;;10.75;3.28;;;;;;;5.63;76.06;101645.00;5088898;28;20028;-54
2021/12/20 04:35:29;;;;;;;5.22;2.00;;;;;;;5.65;76.42;101638.09;5090315;28;20508;-55
2021/12/20 04:37:55;;;;;;;6.22;1.98;;;;;;;5.63;75.57;101634.53;5091649;28;20023;-54
2021/12/20 04:40:22;;;;;;;8.80;2.13;;;;;;;5.64;75.90;101633.72;5092651;28;20122;-54
2021/12/20 04:42:55;;;;;;;3.95;2.17;;;;;;;5.61;75.74;101633.63;5091691;28;20563;-54
2021/12/20 04:45:21;;;;;;;7.13;2.22;;;;;;;5.60;75.80;101639.72;5090585;28;20024;-54
2021/12/20 04:47:47;;;;;;;4.45;1.98;;;;;;;5.60;76.75;101634.47;5092195;28;20039;-54
2021/12/20 04:50:12;;;;;;;7.18;2.38;;;;;;;5.61;76.28;101641.47;5074009;28;20537;-54
2021/12/20 04:52:38;;;;;;;5.95;2.72;;;;;;;5.61;75.70;101644.09;5091969;28;20024;-53
2021/12/20 04:55:06;;;;;;;4.95;2.35;;;;;;;5.62;76.13;101638.00;5092140;28;20483;-54
2021/12/20 04:57:31;;;;;;;4.93;2.20;;;;;;;5.59;76.07;101637.91;5091502;28;20016;-54
2021/12/20 04:59:57;;;;;;;4.72;1.92;;;;;;;5.60;76.24;101645.81;5091744;28;20530;-54
2021/12/20 05:02:23;;;;;;;6.75;2.47;;;;;;;5.60;75.86;101645.81;5090813;28;20045;-53
2021/12/20 05:04:48;;;;;;;7.28;1.98;;;;;;;5.57;75.58;101644.84;5092210;28;20046;-54
2021/12/20 05:07:13;;;;;;;3.88;2.10;;;;;;;5.61;75.80;101651.94;5092473;28;20511;-52
2021/12/20 05:09:40;;;;;;;3.47;2.08;;;;;;;5.60;75.86;101658.03;5091727;28;20031;-52
2021/12/20 05:12:14;;;;;;;6.00;2.08;;;;;;;5.55;75.53;101667.47;5090249;28;20046;-52
2021/12/20 05:14:42;;;;;;;5.72;2.35;;;;;;;5.58;75.49;101662.31;5093495;28;20035;-52
2021/12/20 05:17:08;;;;;;;4.53;2.05;;;;;;;5.57;75.84;101657.94;5056605;28;20042;-51
2021/12/20 05:19:34;;;;;;;5.40;2.22;;;;;;;5.59;76.38;101661.47;5072805;28;20381;-51
2021/12/20 05:21:59;;;;;;;3.22;1.75;;;;;;;5.58;75.77;101663.22;5073382;28;20033;-52
2021/12/20 05:24:24;;;;;;;4.47;1.92;;;;;;;5.56;76.43;101669.22;5090658;28;20068;-52
2021/12/20 05:26:50;;;;;;;5.10;2.08;;;;;;;5.55;75.83;101675.31;5092706;28;20433;-53
2021/12/20 05:29:15;;;;;;;5.88;2.67;;;;;;;5.54;76.42;101684.03;5091555;28;20051;-52
2021/12/20 05:31:40;;;;;;;4.55;2.30;;;;;;;5.54;76.03;101686.63;5089075;28;20441;-53
2021/12/20 05:34:06;;;;;;;4.28;1.80;;;;;;;5.52;76.21;101683.97;5089706;28;20024;-50
2021/12/20 05:36:31;;;;;;;5.63;2.08;;;;;;;5.52;76.22;101677.03;5091667;28;20022;-52
2021/12/20 05:39:52;;;;;;;4.72;2.35;;;;;;;5.52;75.86;101679.63;5089266;28;20027;-53
2021/12/20 05:42:18;;;;;;;4.63;1.80;;;;;;;5.51;76.36;101688.31;5089370;28;20099;-52
2021/12/20 05:44:44;;;;;;;7.82;2.45;;;;;;;5.52;76.38;101684.88;5074278;28;20111;-52
2021/12/20 05:47:09;;;;;;;3.47;1.77;;;;;;;5.50;75.93;101685.66;5091284;28;20028;-52
2021/12/20 05:49:34;;;;;;;7.05;2.55;;;;;;;5.49;76.26;101687.41;5092796;28;20078;-53
2021/12/20 05:52:06;;;;;;;3.55;1.80;;;;;;;5.48;76.11;101693.47;5090812;28;20039;-53
2021/12/20 05:54:31;;;;;;;4.68;2.00;;;;;;;5.48;75.96;101701.34;5090840;28;20479;-53
2021/12/20 05:56:57;;;;;;;6.05;2.20;;;;;;;5.48;75.73;101696.09;5091069;28;20020;-53
2021/12/20 05:59:22;;;;;;;6.20;2.13;;;;;;;5.47;75.48;101690.81;5090639;28;20039;-53
2021/12/20 06:01:49;;;;;;;4.00;1.85;;;;;;;5.48;75.77;101703.94;5090437;28;20099;-52
2021/12/20 06:04:14;;;;;;;5.95;2.28;;;;;;;5.46;76.23;101708.25;5090639;28;20067;-52
2021/12/20 06:06:40;;;;;;;3.58;1.73;;;;;;;5.46;76.01;101708.25;5091384;28;20497;-52
2021/12/20 06:09:58;;;;;;;4.03;2.15;;;;;;;5.45;76.27;101709.09;5089653;28;20027;-51
2021/12/20 06:12:23;;;;;;;3.35;2.42;;;;;;;5.44;76.24;101706.44;5088807;28;20042;-52
2021/12/20 06:14:48;;;;;;;5.35;1.70;;;;;;;5.43;76.39;101713.38;5090392;28;20468;-49
2021/12/20 06:17:14;;;;;;;4.35;2.15;;;;;;;5.45;75.96;101719.56;5092323;28;20073;-51
2021/12/20 06:19:40;;;;;;;2.42;1.88;;;;;;;5.45;75.66;101718.66;5090531;28;20039;-51
2021/12/20 06:22:07;;;;;;;4.05;1.95;;;;;;;5.43;75.89;101717.75;5089568;28;20042;-51
2021/12/20 06:27:54;;;;;;;;;;;;;;;5.39;76.22;101714.13;5088920;28;20109;-51
2021/12/20 06:30:20;;;;;;;2.15;1.77;;;;;;;5.37;75.78;101713.22;5090659;28;19950;-51
2021/12/20 06:32:48;;;;;;;2.28;1.80;;;;;;;5.38;76.08;101718.47;5088628;28;20051;-51
2021/12/20 06:35:13;;;;;;;2.08;1.80;;;;;;;5.36;76.29;101714.94;5089870;28;20020;-51
2021/12/20 06:37:40;;;;;;;3.20;1.80;;;;;;;5.35;75.63;101718.41;5089616;28;20028;-52
2021/12/20 06:40:06;;;;;;;2.92;1.85;;;;;;;5.37;76.10;101731.53;5088557;28;20104;-52
2021/12/20 06:42:31;;;;;;;2.85;1.90;;;;;;;5.36;76.13;101732.34;5087501;28;20106;-52
2021/12/20 06:44:57;;;;;;;3.58;2.22;;;;;;;5.36;75.53;101734.97;5070263;28;20107;-51
2021/12/20 06:47:23;;;;;;;5.45;1.90;;;;;;;5.35;76.08;101734.09;5088892;28;20040;-51
2021/12/20 06:49:49;;;;;;;4.05;2.03;;;;;;;5.37;75.92;101739.38;5086441;28;20159;-52
2021/12/20 06:52:14;;;;;;;2.65;1.92;;;;;;;5.35;75.90;101736.72;5089409;28;20047;-52
2021/12/20 06:54:40;;;;;;;3.47;2.05;;;;;;;5.33;75.43;101740.13;5072512;28;20062;-52
2021/12/20 06:57:05;;;;;;;5.25;1.98;;;;;;;5.31;75.95;101733.94;5089709;28;20024;-52
2021/12/20 06:59:30;;;;;;;2.25;1.80;;;;;;;5.34;75.79;101740.16;5090029;28;20028;-52
2021/12/20 07:01:56;;;;;;;5.05;1.92;;;;;;;5.31;75.72;101741.81;5089013;28;20069;-52
2021/12/20 07:04:21;;;;;;;2.30;1.65;;;;;;;5.32;75.66;101756.66;5091032;28;20547;-52
2021/12/20 07:06:47;;;;;;;1.65;1.33;;;;;;;5.30;75.76;101746.13;5071880;28;20032;-52
2021/12/20 07:09:12;;;;;;;4.40;2.60;;;;;;;5.30;75.86;101750.50;5090189;28;20539;-52
2021/12/20 07:11:40;;;;;;;3.72;1.80;;;;;;;5.30;75.33;101746.13;5089837;28;20050;-51
2021/12/20 07:14:06;;;;;;;4.82;2.03;;;;;;;5.29;75.64;101743.47;5089424;28;20391;-51
2021/12/20 07:16:34;;;;;;;4.05;1.83;;;;;;;5.29;75.38;101744.38;5090154;28;20024;-52
2021/12/20 07:19:01;;;;;;;2.15;1.83;;;;;;;5.29;75.39;101753.94;5089683;28;20032;-52
2021/12/20 07:21:27;;;;;;;3.85;1.90;;;;;;;5.29;75.61;101738.25;5090098;28;20028;-52
2021/12/20 07:23:52;;;;;;;3.50;2.08;;;;;;;5.26;75.94;101749.50;5090475;28;20027;-52
2021/12/20 07:26:17;;;;;;;4.32;2.72;;;;;;;5.26;75.76;101750.41;5097079;28;20031;-52
2021/12/20 07:28:43;;;;;;;3.92;1.95;;;;;;;5.28;75.70;101746.94;5090197;28;20574;-52
2021/12/20 07:31:12;;;;;;;4.15;2.53;;;;;;;5.26;75.66;101745.16;5092195;28;20020;-52
2021/12/20 07:33:38;;;;;;;3.78;2.10;;;;;;;5.28;75.50;101746.94;5093609;28;20111;-53
2021/12/20 07:36:04;;;;;;;4.40;2.00;;;;;;;5.25;75.79;101743.41;5092960;28;20123;-51
2021/12/20 07:38:29;;;;;;;2.10;1.60;;;;;;;5.23;75.80;101745.06;5072908;28;20030;-52
2021/12/20 07:40:55;;;;;;;2.97;2.08;;;;;;;5.26;75.33;101742.56;5074726;28;20032;-53
2021/12/20 07:43:21;;;;;;;5.90;2.88;;;;;;;5.23;75.72;101745.06;5095100;28;20024;-53
2021/12/20 07:45:47;;;;;;;3.90;2.00;;;;;;;5.24;75.52;101746.84;5093440;28;20032;-52
2021/12/20 07:48:21;;;;;;;3.78;2.10;;;;;;;5.24;75.58;101743.34;5093157;28;20028;-52
2021/12/20 07:50:49;;;;;;;4.70;1.92;;;;;;;5.20;75.57;101759.81;5091348;28;20717;-52
2021/12/20 07:53:15;;;;;;;2.50;1.98;;;;;;;5.21;75.25;101754.63;5073674;28;20375;-52
2021/12/20 07:55:40;;;;;;;4.75;2.40;;;;;;;5.19;75.19;101758.91;5094552;28;20106;-53
2021/12/20 07:58:06;;;;;;;5.35;2.75;;;;;;;5.19;75.50;101764.13;5093448;28;20031;-50
2021/12/20 08:00:31;;;;;;;2.70;2.42;;;;;;;5.18;75.03;101767.59;5075002;28;20024;-50
2021/12/20 08:02:57;;;;;;;6.28;3.17;;;;;;;5.19;75.21;101764.13;5074158;28;20038;-51
2021/12/20 08:05:24;;;;;;;7.90;2.90;;;;;;;5.18;75.36;101756.25;5093328;28;20418;-52
2021/12/20 08:07:51;;;;;;;5.70;3.47;;;;;;;5.16;75.28;101756.19;5091348;28;20085;-54
2021/12/20 08:10:21;;;;;;;5.40;2.92;;;;;;;5.17;75.61;101763.19;5092901;28;20019;-53
2021/12/20 08:12:49;;;;;;;5.13;2.73;;;;;;;5.15;75.89;101767.50;5092514;28;20081;-54
2021/12/20 08:15:14;;;;;;;5.50;2.92;;;;;;;5.14;74.99;101755.28;5094485;28;20472;-53
2021/12/20 08:17:43;;;;;;;5.38;2.60;;;;;;;5.13;75.36;101758.69;5090772;28;20035;-54
2021/12/20 08:20:10;;;;;;;4.75;2.60;;;;;;;5.12;75.71;101760.44;5092081;28;21407;-52
2021/12/20 08:22:36;;;;;;;5.13;2.63;;;;;;;5.11;75.72;101756.03;5073686;28;20028;-53
2021/12/20 08:25:01;;;;;;;3.63;2.67;;;;;;;5.12;75.81;101754.31;5092706;28;20024;-53
2021/12/20 08:27:27;;;;;;;4.85;2.90;;;;;;;5.10;75.14;101759.50;5092632;28;20023;-53
2021/12/20 08:29:52;;;;;;;3.97;3.00;;;;;;;5.11;75.54;101755.16;5091397;28;20384;-54
2021/12/20 08:32:17;;;;;;;4.28;3.28;;;;;;;5.10;75.67;101759.50;5074007;28;20085;-53
2021/12/20 08:34:43;;;;;;;3.35;3.05;;;;;;;5.11;74.98;101770.84;5073961;28;20460;-53
2021/12/20 08:37:08;;;;;;;5.72;3.17;;;;;;;5.09;75.51;101772.53;5092820;28;20052;-53
2021/12/20 08:39:34;;;;;;;5.25;2.70;;;;;;;5.11;75.44;101763.88;5091831;28;20569;-52
2021/12/20 08:42:00;;;;;;;7.70;3.50;;;;;;;5.08;74.86;101779.50;5088641;28;20483;-52
2021/12/20 08:44:26;;;;;;;6.57;3.65;;;;;;;5.08;75.38;101781.22;5092089;28;20020;-52
2021/12/20 08:46:52;;;;;;;3.92;3.50;;;;;;;5.05;75.00;101784.63;5091226;28;20016;-52
2021/12/20 08:49:18;;;;;;;7.40;3.92;;;;;;;5.06;75.25;101778.56;5091924;28;20174;-52
2021/12/20 08:51:45;;;;;;;5.03;3.70;;;;;;;5.06;75.08;101783.78;5091701;28;20028;-52
2021/12/20 08:54:10;;;;;;;4.47;3.40;;;;;;;5.06;74.70;101782.88;5090859;28;20019;-52
2021/12/20 08:56:36;;;;;;;6.47;3.50;;;;;;;5.04;75.11;101788.09;5070099;28;20023;-52
2021/12/20 08:59:01;;;;;;;4.28;3.20;;;;;;;5.05;74.84;101789.84;5072565;28;20032;-52
2021/12/20 09:01:26;;;;;;;3.70;3.40;;;;;;;5.06;74.88;101793.34;5090681;28;20073;-53
2021/12/20 09:03:52;;;;;;;5.88;3.72;;;;;;;5.06;75.30;101803.81;5091776;28;20032;-56
2021/12/20 09:06:17;;;;;;;4.25;3.25;;;;;;;5.05;75.15;101802.03;5072230;28;20386;-54
2021/12/20 09:08:42;;;;;;;4.25;3.45;;;;;;;5.02;74.77;101802.81;5089340;28;20031;-54
2021/12/20 09:11:08;;;;;;;3.50;2.95;;;;;;;5.05;74.78;101810.78;5092149;28;20099;-54
2021/12/20 09:16:55;;;;;;;;;;;;;;;5.03;74.56;101809.81;5088595;28;20529;-52
2021/12/20 09:19:21;;;;;;;5.15;3.25;;;;;;;5.03;74.92;101806.34;5091675;28;19943;-53
2021/12/20 09:21:48;;;;;;;4.22;3.20;;;;;;;5.03;74.59;101808.97;5089501;28;20028;-50
2021/12/20 09:24:14;;;;;;;5.13;3.10;;;;;;;5.03;74.40;101820.28;5091050;28;20071;-53
2021/12/20 09:26:40;;;;;;;3.55;2.70;;;;;;;5.03;74.68;101828.13;5091635;28;20506;-54
2021/12/20 09:29:05;;;;;;;5.60;3.22;;;;;;;5.01;74.64;101820.22;5091428;28;20028;-54
2021/12/20 09:31:31;;;;;;;5.07;2.65;;;;;;;5.04;74.48;101826.41;5086865;28;20016;-51
2021/12/20 09:33:56;;;;;;;3.88;2.92;;;;;;;5.01;74.98;101817.63;5089625;28;20043;-52
2021/12/20 09:36:28;;;;;;;5.20;3.47;;;;;;;5.03;74.65;101830.75;5088520;28;20031;-54
2021/12/20 09:38:54;;;;;;;4.20;3.67;;;;;;;5.02;74.67;101826.38;5090040;28;20472;-53
2021/12/20 09:44:11;;;;;;;5.97;5.38;;;;;;;5.01;74.45;101833.31;5070839;28;20043;-52
2021/12/20 09:46:37;;;;;;;6.30;5.50;;;;;;;5.04;74.84;101831.66;5090338;28;20062;-53
2021/12/20 09:49:04;;;;;;;7.07;6.13;;;;;;;5.03;74.63;101827.25;5072263;28;20562;-53
2021/12/20 09:51:30;;;;;;;8.10;6.45;;;;;;;5.01;74.80;101833.31;5090284;28;20526;-53
2021/12/20 09:53:55;;;;;;;7.45;6.50;;;;;;;5.03;74.79;101835.09;5067375;28;20044;-53
2021/12/20 09:56:26;;;;;;;8.48;6.30;;;;;;;5.03;74.78;101840.34;5087401;28;20055;-53
2021/12/20 09:58:53;;;;;;;11.02;5.80;;;;;;;5.02;75.16;101844.66;5070623;28;20024;-54
2021/12/20 10:04:40;;;;;;;6.60;5.10;;;;;;;5.00;74.85;101848.94;5087466;28;20101;-54
2021/12/20 10:07:06;;;;;;;5.35;4.85;;;;;;;5.01;74.85;101849.00;5070023;28;20047;-52
2021/12/20 10:09:34;;;;;;;5.10;4.30;;;;;;;5.01;74.93;101842.91;5091266;28;20756;-52
2021/12/20 10:12:16;;;;;;;5.00;4.50;;;;;;;5.00;75.01;101842.00;5089905;28;20392;-52
2021/12/20 10:15:04;;;;;;;7.95;4.63;;;;;;;5.00;74.19;101841.09;5085881;28;20026;-52
2021/12/20 10:17:58;;;;;;;6.03;4.30;;;;;;;5.01;74.42;101838.53;5090248;28;20031;-52
2021/12/20 10:20:26;;;;;;;5.53;4.13;;;;;;;5.00;74.47;101842.00;5081272;28;20169;-51
2021/12/20 10:22:53;;;;;;;6.10;4.32;;;;;;;5.00;74.81;101849.84;5088666;28;20073;-51
2021/12/20 10:25:28;;;;;;;4.82;4.03;;;;;;;4.99;74.75;101842.84;5065815;28;20488;-52
2021/12/20 10:28:03;;;;;;;5.43;3.67;;;;;;;5.01;74.24;101843.78;5089776;28;20024;-53
2021/12/20 10:30:31;;;;;;;5.20;4.65;;;;;;;5.00;74.47;101857.69;5089866;28;20024;-53
2021/12/20 10:32:58;;;;;;;4.30;3.90;;;;;;;4.98;74.48;101840.19;5089298;28;20020;-54
2021/12/20 10:35:27;;;;;;;4.72;3.75;;;;;;;5.00;74.78;101847.22;5086724;28;20471;-54
2021/12/20 10:38:21;;;;;;;7.93;4.00;;;;;;;5.00;74.79;101849.84;5091977;28;20089;-53
2021/12/20 10:40:58;;;;;;;5.18;3.65;;;;;;;4.98;74.57;101862.00;5089117;28;20020;-51
2021/12/20 10:43:37;;;;;;;3.88;3.40;;;;;;;4.99;74.79;101855.91;5087946;28;20035;-50
2021/12/20 10:46:16;;;;;;;4.57;3.08;;;;;;;4.99;74.35;101852.41;5089859;28;20128;-52
2021/12/20 10:52:05;;;;;;;4.03;3.22;;;;;;;4.99;74.87;101860.25;5088567;28;20031;-51
2021/12/20 10:54:42;;;;;;;7.55;3.70;;;;;;;4.99;75.01;101853.31;5089491;28;20503;-52
2021/12/20 10:57:08;;;;;;;5.53;3.78;;;;;;;4.98;74.52;101856.78;5088572;28;20066;-52
2021/12/20 10:59:35;;;;;;;3.38;3.08;;;;;;;4.97;74.75;101852.34;5091529;28;20544;-52
2021/12/20 11:04:36;;;;;;;4.78;3.22;;;;;;;4.98;74.23;101854.16;5093920;28;20097;-51
2021/12/20 11:09:36;;;;;;;4.65;3.33;;;;;;;4.97;74.95;101844.50;5059820;28;20043;-51
2021/12/20 11:12:08;;;;;;;3.50;3.17;;;;;;;4.98;75.00;101848.94;5093581;28;20020;-52
2021/12/20 11:14:47;;;;;;;4.60;3.15;;;;;;;4.96;74.64;101842.75;5094138;28;20023;-52
2021/12/20 11:17:15;;;;;;;5.40;2.53;;;;;;;4.97;74.72;101839.28;5077048;28;20032;-52
2021/12/20 11:19:44;;;;;;;4.85;2.92;;;;;;;4.98;74.81;101842.78;5076615;28;20033;-51
2021/12/20 11:22:27;;;;;;;5.22;2.78;;;;;;;4.98;74.89;101841.06;5075292;28;20559;-52
2021/12/20 11:25:07;;;;;;;4.07;2.95;;;;;;;4.99;74.56;101839.34;5093124;28;20031;-51
2021/12/20 11:27:37;;;;;;;6.00;2.83;;;;;;;4.98;74.84;101848.03;5091608;28;20027;-52
2021/12/20 11:30:23;;;;;;;5.85;3.10;;;;;;;4.98;74.52;101838.47;5073426;28;20403;-52
2021/12/20 11:32:50;;;;;;;3.70;2.58;;;;;;;4.98;74.94;101832.34;5090392;28;20547;-52
2021/12/20 11:35:17;;;;;;;3.38;2.72;;;;;;;4.99;74.85;101834.09;5092822;28;20024;-52
2021/12/20 11:37:43;;;;;;;4.47;2.90;;;;;;;4.99;74.56;101840.22;5093624;28;20019;-51
2021/12/20 11:40:10;;;;;;;3.45;2.88;;;;;;;4.99;75.07;101837.63;5089922;28;20383;-53
2021/12/20 11:42:35;;;;;;;3.03;2.50;;;;;;;4.99;74.67;101835.00;5092100;28;20484;-53
2021/12/20 11:45:05;;;;;;;5.20;3.63;;;;;;;5.01;74.33;101840.28;5089603;28;20077;-53
2021/12/20 11:47:35;;;;;;;4.13;2.60;;;;;;;4.99;74.96;101834.09;5057167;28;20048;-53
2021/12/20 11:50:12;;;;;;;5.63;2.72;;;;;;;4.99;74.66;101840.22;5091445;28;20028;-52
2021/12/20 11:52:40;;;;;;;6.25;2.60;;;;;;;5.00;75.22;101839.38;5089632;28;20031;-53
2021/12/20 11:55:27;;;;;;;3.88;2.45;;;;;;;5.00;74.86;101839.38;5090251;28;20024;-54
2021/12/20 11:57:54;;;;;;;6.00;3.10;;;;;;;5.01;74.89;101838.53;5089021;28;20162;-56
2021/12/20 12:00:24;;;;;;;5.15;2.53;;;;;;;5.01;74.90;101832.44;5089076;28;20150;-50
2021/12/20 12:02:53;;;;;;;4.13;2.80;;;;;;;5.01;74.65;101838.53;5088551;28;20047;-49
2021/12/20 12:05:40;;;;;;;3.13;2.50;;;;;;;5.01;75.02;101830.69;5071997;28;20498;-52
2021/12/20 12:08:33;;;;;;;3.67;2.22;;;;;;;5.00;74.99;101831.53;5070324;28;20050;-52
2021/12/20 12:11:04;;;;;;;3.60;2.47;;;;;;;5.00;74.66;101831.53;5089157;28;20731;-52
2021/12/20 12:13:46;;;;;;;5.60;2.70;;;;;;;5.00;75.10;101825.41;5088750;28;20028;-52